Time;durP1;ratioP1;P1;durP2;ratioP2;P2;SDS_P1;SDS_P2;PMS_P1;PMS_P2;Temp;Humidity;BMP_temperature;BMP_pressure;BME280_temperature;BME280_humidity;BME280_pressure;Samples;Min_cycle;Max_cycle;Signal;HPM_P1;HPM_P2
2021/05/15 00:01:06;;;;;;;0.73;0.43;;;;;;;;;;5046967;28;20080;-71
2021/05/15 00:03:32;;;;;;;0.95;0.50;;;;;;;;;;5047932;28;20416;-71
2021/05/15 00:05:58;;;;;;;4.13;0.60;;;;;;;;;;5048698;28;20443;-72
2021/05/15 00:08:25;;;;;;;0.70;0.70;;;;;;;;;;5047283;28;20120;-72
2021/05/15 00:10:51;;;;;;;1.58;0.40;;;;;;;;;;5048026;28;20029;-72
2021/05/15 00:13:18;;;;;;;1.10;0.70;;;;;;;;;;5047086;28;20553;-71
2021/05/15 00:15:45;;;;;;;1.33;0.55;;;;;;;;;;5048324;28;20104;-72
2021/05/15 00:18:11;;;;;;;0.60;0.50;;;;;;;;;;5047720;28;20136;-71
2021/05/15 00:20:37;;;;;;;0.77;0.57;;;;;;;;;;5047800;28;20113;-71
2021/05/15 00:23:03;;;;;;;0.70;0.50;;;;;;;;;;5047006;28;20066;-72
2021/05/15 00:25:29;;;;;;;1.95;0.60;;;;;;;;;;5047757;28;20047;-71
2021/05/15 00:27:55;;;;;;;0.43;0.43;;;;;;;;;;5047711;28;20086;-71
2021/05/15 00:30:21;;;;;;;2.50;0.65;;;;;;;;;;5046292;28;20031;-71
2021/05/15 00:32:47;;;;;;;0.30;0.30;;;;;;;;;;5047054;28;20032;-71
2021/05/15 00:35:14;;;;;;;1.85;0.70;;;;;;;;;;5047725;28;20029;-71
2021/05/15 00:37:40;;;;;;;1.38;0.73;;;;;;;;;;5047930;28;20567;-71
2021/05/15 00:40:07;;;;;;;0.47;0.47;;;;;;;;;;5048137;28;20472;-72
2021/05/15 00:42:34;;;;;;;0.98;0.47;;;;;;;;;;5047122;28;20509;-71
2021/05/15 00:45:00;;;;;;;2.97;0.65;;;;;;;;;;5047991;28;20402;-71
2021/05/15 00:47:26;;;;;;;0.40;0.40;;;;;;;;;;5046288;28;20037;-72
2021/05/15 00:49:53;;;;;;;0.93;0.57;;;;;;;;;;5028501;28;20534;-71
2021/05/15 00:52:20;;;;;;;0.88;0.60;;;;;;;;;;5066813;28;20032;-71
2021/05/15 00:54:47;;;;;;;0.50;0.50;;;;;;;;;;5049612;28;20487;-71
2021/05/15 00:57:13;;;;;;;0.70;0.63;;;;;;;;;;5066970;28;20052;-71
2021/05/15 00:59:39;;;;;;;1.48;0.90;;;;;;;;;;5066898;28;20067;-71
2021/05/15 01:02:07;;;;;;;0.82;0.57;;;;;;;;;;5066710;28;20020;-71
2021/05/15 01:04:33;;;;;;;1.17;0.52;;;;;;;;;;5068083;28;20025;-71
2021/05/15 01:07:00;;;;;;;0.45;0.43;;;;;;;;;;5067736;28;20196;-71
2021/05/15 01:09:26;;;;;;;0.40;0.40;;;;;;;;;;5066998;28;20083;-71
2021/05/15 01:11:52;;;;;;;0.70;0.40;;;;;;;;;;5067194;28;20024;-71
2021/05/15 01:14:18;;;;;;;0.70;0.60;;;;;;;;;;5066529;28;20047;-71
2021/05/15 01:16:44;;;;;;;0.95;0.47;;;;;;;;;;5067472;28;20478;-71
2021/05/15 01:19:15;;;;;;;0.35;0.35;;;;;;;;;;5066709;28;20021;-71
2021/05/15 01:21:41;;;;;;;1.13;0.90;;;;;;;;;;5067255;28;20028;-71
2021/05/15 01:24:07;;;;;;;0.73;0.73;;;;;;;;;;5066865;28;20085;-71
2021/05/15 01:26:34;;;;;;;1.77;0.63;;;;;;;;;;5067594;28;20032;-71
2021/05/15 01:29:05;;;;;;;0.40;0.40;;;;;;;;;;5070146;28;20029;-71
2021/05/15 01:31:31;;;;;;;0.73;0.52;;;;;;;;;;5069960;28;20085;-72
2021/05/15 01:33:58;;;;;;;2.45;0.50;;;;;;;;;;5070689;28;20045;-72
2021/05/15 01:36:25;;;;;;;0.52;0.40;;;;;;;;;;5070879;28;20674;-72
2021/05/15 01:38:51;;;;;;;0.35;0.30;;;;;;;;;;5070733;28;20028;-72
2021/05/15 01:41:18;;;;;;;1.08;0.60;;;;;;;;;;5069843;28;20020;-71
2021/05/15 01:43:45;;;;;;;1.55;0.65;;;;;;;;;;5071125;28;20024;-72
2021/05/15 01:46:11;;;;;;;1.20;0.65;;;;;;;;;;5070660;28;20054;-71
2021/05/15 01:48:38;;;;;;;3.13;1.02;;;;;;;;;;5070362;28;20101;-71
2021/05/15 01:51:04;;;;;;;0.40;0.40;;;;;;;;;;5059799;28;20025;-71
2021/05/15 01:53:32;;;;;;;0.57;0.50;;;;;;;;;;5049452;28;20040;-71
2021/05/15 01:55:58;;;;;;;0.88;0.45;;;;;;;;;;5050594;28;20025;-71
2021/05/15 01:58:25;;;;;;;0.40;0.40;;;;;;;;;;5049238;28;20040;-71
2021/05/15 02:00:51;;;;;;;0.77;0.30;;;;;;;;;;5049524;28;20499;-71
2021/05/15 02:03:17;;;;;;;1.55;0.77;;;;;;;;;;5048998;28;20502;-71
2021/05/15 02:05:43;;;;;;;0.60;0.60;;;;;;;;;;5051063;28;20452;-72
2021/05/15 02:08:11;;;;;;;0.50;0.50;;;;;;;;;;5049849;28;20032;-71
2021/05/15 02:10:37;;;;;;;0.55;0.50;;;;;;;;;;5050543;28;20113;-71
2021/05/15 02:13:04;;;;;;;0.30;0.30;;;;;;;;;;5049420;28;20032;-71
2021/05/15 02:15:30;;;;;;;0.77;0.77;;;;;;;;;;5049909;28;20491;-71
2021/05/15 02:18:00;;;;;;;0.47;0.30;;;;;;;;;;5049456;28;20029;-71
2021/05/15 02:20:26;;;;;;;0.45;0.43;;;;;;;;;;5049809;28;20108;-71
2021/05/15 02:22:52;;;;;;;0.50;0.30;;;;;;;;;;5049398;28;20025;-71
2021/05/15 02:25:19;;;;;;;0.40;0.40;;;;;;;;;;5049525;28;20032;-71
2021/05/15 02:27:45;;;;;;;0.35;0.35;;;;;;;;;;5049829;28;20047;-71
2021/05/15 02:30:11;;;;;;;1.00;0.40;;;;;;;;;;5048618;28;20029;-71
2021/05/15 02:32:37;;;;;;;0.30;0.30;;;;;;;;;;5049447;28;20483;-71
2021/05/15 02:35:04;;;;;;;2.72;0.93;;;;;;;;;;5049587;28;20029;-71
2021/05/15 02:37:30;;;;;;;0.63;0.57;;;;;;;;;;5049069;28;20017;-71
2021/05/15 02:39:56;;;;;;;1.77;0.40;;;;;;;;;;5049199;28;20029;-71
2021/05/15 02:42:22;;;;;;;0.55;0.55;;;;;;;;;;5048495;28;20083;-71
2021/05/15 02:44:48;;;;;;;0.75;0.40;;;;;;;;;;5049897;28;20021;-71
2021/05/15 02:47:14;;;;;;;0.40;0.40;;;;;;;;;;5048872;28;20476;-71
2021/05/15 02:49:40;;;;;;;0.50;0.50;;;;;;;;;;5049305;28;20057;-71
2021/05/15 02:52:06;;;;;;;1.05;0.73;;;;;;;;;;5048397;28;20552;-71
2021/05/15 02:54:33;;;;;;;0.73;0.40;;;;;;;;;;5049545;28;20515;-71
2021/05/15 02:56:59;;;;;;;1.70;0.90;;;;;;;;;;5049584;28;20032;-72
2021/05/15 02:59:25;;;;;;;0.40;0.40;;;;;;;;;;5047209;28;20569;-71
2021/05/15 03:01:51;;;;;;;0.38;0.38;;;;;;;;;;5048796;28;20068;-71
2021/05/15 03:04:17;;;;;;;0.82;0.60;;;;;;;;;;5048407;28;20029;-71
2021/05/15 03:06:44;;;;;;;0.43;0.43;;;;;;;;;;5049689;28;20064;-71
2021/05/15 03:09:10;;;;;;;0.77;0.77;;;;;;;;;;5048607;28;20032;-71
2021/05/15 03:11:36;;;;;;;1.00;0.50;;;;;;;;;;5048702;28;20043;-71
2021/05/15 03:14:02;;;;;;;0.90;0.90;;;;;;;;;;5048361;28;20037;-71
2021/05/15 03:16:28;;;;;;;0.20;0.20;;;;;;;;;;5049005;28;20108;-71
2021/05/15 03:18:54;;;;;;;0.52;0.47;;;;;;;;;;5048302;28;20436;-71
2021/05/15 03:21:20;;;;;;;1.08;0.40;;;;;;;;;;5048223;28;20103;-71
2021/05/15 03:23:46;;;;;;;0.45;0.45;;;;;;;;;;5048916;28;20294;-71
2021/05/15 03:26:12;;;;;;;0.20;0.20;;;;;;;;;;5048365;28;20100;-71
2021/05/15 03:28:38;;;;;;;0.60;0.40;;;;;;;;;;5048363;28;20040;-71
2021/05/15 03:31:04;;;;;;;0.45;0.45;;;;;;;;;;5047623;28;20442;-71
2021/05/15 03:33:30;;;;;;;0.30;0.30;;;;;;;;;;5048271;28;20048;-71
2021/05/15 03:35:56;;;;;;;0.60;0.35;;;;;;;;;;5048816;28;20032;-71
2021/05/15 03:38:23;;;;;;;0.55;0.50;;;;;;;;;;5047760;28;20041;-71
2021/05/15 03:40:49;;;;;;;0.30;0.30;;;;;;;;;;5048815;28;20100;-71
2021/05/15 03:43:15;;;;;;;0.40;0.40;;;;;;;;;;5047686;28;20017;-71
2021/05/15 03:45:41;;;;;;;0.25;0.25;;;;;;;;;;5048930;28;20077;-71
2021/05/15 03:48:07;;;;;;;0.68;0.30;;;;;;;;;;5041701;28;20041;-71
2021/05/15 03:50:33;;;;;;;0.55;0.30;;;;;;;;;;5033973;28;20554;-71
2021/05/15 03:52:59;;;;;;;0.30;0.30;;;;;;;;;;5047680;28;20446;-71
2021/05/15 03:55:25;;;;;;;0.82;0.40;;;;;;;;;;5047888;28;20040;-71
2021/05/15 03:57:51;;;;;;;0.80;0.50;;;;;;;;;;5047999;28;20032;-71
2021/05/15 04:00:18;;;;;;;0.30;0.22;;;;;;;;;;5046968;28;20427;-71
2021/05/15 04:02:46;;;;;;;0.40;0.40;;;;;;;;;;5047498;28;20021;-71
2021/05/15 04:05:12;;;;;;;0.25;0.20;;;;;;;;;;5047804;28;20086;-72
2021/05/15 04:07:39;;;;;;;0.30;0.30;;;;;;;;;;5048113;28;20177;-71
2021/05/15 04:10:05;;;;;;;0.30;0.30;;;;;;;;;;5048600;28;20494;-71
2021/05/15 04:12:35;;;;;;;1.73;0.60;;;;;;;;;;5047353;28;20033;-71
2021/05/15 04:15:06;;;;;;;0.30;0.30;;;;;;;;;;5047987;28;20032;-71
2021/05/15 04:17:32;;;;;;;0.75;0.75;;;;;;;;;;5047794;28;20028;-71
2021/05/15 04:19:59;;;;;;;2.70;0.47;;;;;;;;;;5048041;28;20495;-71
2021/05/15 04:22:25;;;;;;;0.20;0.20;;;;;;;;;;5046621;28;20025;-71
2021/05/15 04:24:51;;;;;;;0.50;0.50;;;;;;;;;;5048068;28;20483;-71
2021/05/15 04:27:18;;;;;;;0.63;0.35;;;;;;;;;;5047585;28;20033;-71
2021/05/15 04:29:45;;;;;;;0.20;0.20;;;;;;;;;;5047107;28;20096;-71
2021/05/15 04:32:11;;;;;;;0.30;0.30;;;;;;;;;;5046845;28;20021;-72
2021/05/15 04:34:37;;;;;;;0.52;0.52;;;;;;;;;;5048224;28;20029;-71
2021/05/15 04:37:03;;;;;;;0.25;0.25;;;;;;;;;;5047511;28;20021;-71
2021/05/15 04:39:30;;;;;;;1.60;0.10;;;;;;;;;;5047552;28;20630;-71
2021/05/15 04:41:56;;;;;;;1.33;0.30;;;;;;;;;;5047545;28;20101;-71
2021/05/15 04:44:23;;;;;;;0.73;0.30;;;;;;;;;;5047367;28;20469;-71
2021/05/15 04:46:49;;;;;;;0.95;0.60;;;;;;;;;;5047879;28;20029;-71
2021/05/15 04:49:15;;;;;;;0.30;0.30;;;;;;;;;;5062587;28;20048;-71
2021/05/15 04:51:42;;;;;;;0.40;0.38;;;;;;;;;;5051819;28;20040;-71
2021/05/15 04:54:08;;;;;;;0.70;0.40;;;;;;;;;;5046855;28;20033;-71
2021/05/15 04:56:35;;;;;;;0.60;0.55;;;;;;;;;;5047877;28;20391;-71
2021/05/15 04:59:01;;;;;;;0.40;0.30;;;;;;;;;;5047468;28;20053;-71
2021/05/15 05:01:27;;;;;;;0.30;0.30;;;;;;;;;;5045854;28;20060;-71
2021/05/15 05:03:53;;;;;;;0.30;0.30;;;;;;;;;;5051465;28;20025;-71
2021/05/15 05:06:19;;;;;;;0.90;0.40;;;;;;;;;;5051223;28;20150;-71
2021/05/15 05:08:46;;;;;;;0.28;0.28;;;;;;;;;;5051420;28;20068;-71
2021/05/15 05:11:12;;;;;;;0.20;0.20;;;;;;;;;;5051085;28;20036;-71
2021/05/15 05:13:38;;;;;;;0.20;0.20;;;;;;;;;;5050749;28;20098;-71
2021/05/15 05:16:04;;;;;;;0.22;0.22;;;;;;;;;;5051215;28;20032;-71
2021/05/15 05:18:30;;;;;;;0.20;0.20;;;;;;;;;;5050940;28;20025;-72
2021/05/15 05:20:57;;;;;;;0.40;0.40;;;;;;;;;;5051110;28;20029;-71
2021/05/15 05:23:24;;;;;;;0.40;0.40;;;;;;;;;;5050284;28;20033;-71
2021/05/15 05:25:50;;;;;;;0.43;0.43;;;;;;;;;;5051630;28;20036;-71
2021/05/15 05:28:21;;;;;;;0.28;0.28;;;;;;;;;;5050247;28;20154;-71
2021/05/15 05:30:47;;;;;;;0.43;0.28;;;;;;;;;;5050304;28;20098;-71
2021/05/15 05:33:13;;;;;;;0.45;0.20;;;;;;;;;;5050350;28;20013;-71
2021/05/15 05:35:39;;;;;;;0.30;0.30;;;;;;;;;;5050846;28;20055;-71
2021/05/15 05:38:06;;;;;;;0.63;0.32;;;;;;;;;;5050195;28;20025;-72
2021/05/15 05:40:32;;;;;;;0.30;0.10;;;;;;;;;;5051026;28;20380;-71
2021/05/15 05:42:58;;;;;;;0.30;0.30;;;;;;;;;;5050445;28;20075;-71
2021/05/15 05:45:24;;;;;;;0.40;0.40;;;;;;;;;;5050487;28;20033;-72
2021/05/15 05:47:50;;;;;;;0.57;0.32;;;;;;;;;;5050482;28;20051;-72
2021/05/15 05:50:16;;;;;;;0.20;0.20;;;;;;;;;;5053888;28;20113;-72
2021/05/15 05:52:42;;;;;;;0.40;0.30;;;;;;;;;;5070624;28;20426;-72
2021/05/15 05:55:09;;;;;;;0.40;0.40;;;;;;;;;;5069687;28;20028;-72
2021/05/15 05:57:35;;;;;;;1.85;0.50;;;;;;;;;;5070521;28;20098;-72
2021/05/15 06:00:01;;;;;;;0.28;0.20;;;;;;;;;;5069875;28;20016;-72
2021/05/15 06:02:28;;;;;;;0.13;0.13;;;;;;;;;;5069270;28;20025;-72
2021/05/15 06:04:54;;;;;;;0.20;0.20;;;;;;;;;;5070686;28;20055;-72
2021/05/15 06:07:20;;;;;;;0.82;0.55;;;;;;;;;;5069649;28;20052;-72
2021/05/15 06:09:46;;;;;;;0.50;0.38;;;;;;;;;;5070687;28;20034;-71
2021/05/15 06:12:13;;;;;;;0.20;0.20;;;;;;;;;;5069130;28;20032;-71
2021/05/15 06:14:40;;;;;;;0.20;0.20;;;;;;;;;;5070065;28;20048;-72
2021/05/15 06:17:06;;;;;;;0.52;0.50;;;;;;;;;;5069893;28;20020;-72
2021/05/15 06:19:32;;;;;;;0.30;0.30;;;;;;;;;;5069527;28;20240;-71
2021/05/15 06:21:58;;;;;;;0.30;0.30;;;;;;;;;;5069826;28;20024;-72
2021/05/15 06:24:25;;;;;;;0.22;0.22;;;;;;;;;;5069734;28;20405;-72
2021/05/15 06:26:51;;;;;;;0.57;0.57;;;;;;;;;;5070552;28;20028;-72
2021/05/15 06:29:18;;;;;;;0.20;0.20;;;;;;;;;;5068293;28;20039;-72
2021/05/15 06:31:44;;;;;;;0.30;0.30;;;;;;;;;;5069775;28;20025;-72
2021/05/15 06:34:10;;;;;;;0.30;0.30;;;;;;;;;;5069379;28;20051;-72
2021/05/15 06:36:36;;;;;;;0.20;0.20;;;;;;;;;;5069796;28;20028;-72
2021/05/15 06:39:02;;;;;;;0.20;0.20;;;;;;;;;;5069838;28;20021;-71
2021/05/15 06:41:28;;;;;;;0.40;0.30;;;;;;;;;;5069326;28;20505;-72
2021/05/15 06:43:54;;;;;;;0.50;0.30;;;;;;;;;;5069874;28;20105;-72
2021/05/15 06:46:20;;;;;;;0.38;0.38;;;;;;;;;;5069339;28;20478;-72
2021/05/15 06:48:46;;;;;;;0.52;0.52;;;;;;;;;;5057859;28;20580;-72
2021/05/15 06:51:12;;;;;;;1.70;0.50;;;;;;;;;;5037489;28;20021;-72
2021/05/15 06:53:38;;;;;;;0.65;0.20;;;;;;;;;;5029550;28;20123;-72
2021/05/15 06:56:04;;;;;;;0.35;0.20;;;;;;;;;;5029055;28;20025;-72
2021/05/15 06:58:30;;;;;;;0.30;0.30;;;;;;;;;;5029477;28;20021;-72
2021/05/15 07:00:57;;;;;;;2.28;0.85;;;;;;;;;;5028434;28;20558;-72
2021/05/15 07:03:23;;;;;;;0.43;0.30;;;;;;;;;;5028674;28;20364;-72
2021/05/15 07:05:49;;;;;;;0.30;0.30;;;;;;;;;;5029119;28;20036;-72
2021/05/15 07:08:15;;;;;;;0.30;0.20;;;;;;;;;;5028384;28;20029;-72
2021/05/15 07:10:41;;;;;;;0.30;0.30;;;;;;;;;;5029589;28;20042;-72
2021/05/15 07:13:07;;;;;;;0.40;0.40;;;;;;;;;;5028555;28;20412;-72
2021/05/15 07:15:33;;;;;;;0.38;0.28;;;;;;;;;;5028964;28;20036;-72
2021/05/15 07:18:01;;;;;;;1.25;0.40;;;;;;;;;;5029296;28;20443;-72
2021/05/15 07:20:27;;;;;;;0.22;0.22;;;;;;;;;;5028712;28;20465;-72
2021/05/15 07:22:53;;;;;;;0.20;0.20;;;;;;;;;;5028686;28;20381;-72
2021/05/15 07:25:19;;;;;;;0.70;0.20;;;;;;;;;;5027871;28;20052;-72
2021/05/15 07:27:45;;;;;;;0.47;0.47;;;;;;;;;;5028963;28;20079;-72
2021/05/15 07:30:12;;;;;;;4.15;0.38;;;;;;;;;;5027607;28;20048;-72
2021/05/15 07:32:38;;;;;;;0.40;0.40;;;;;;;;;;5028906;28;20021;-72
2021/05/15 07:35:05;;;;;;;0.73;0.40;;;;;;;;;;5028870;28;20458;-72
2021/05/15 07:37:31;;;;;;;0.52;0.52;;;;;;;;;;5028403;28;20037;-72
2021/05/15 07:39:57;;;;;;;0.22;0.20;;;;;;;;;;5028892;28;20087;-72
2021/05/15 07:42:23;;;;;;;0.55;0.55;;;;;;;;;;5027857;28;20515;-72
2021/05/15 07:44:49;;;;;;;0.43;0.20;;;;;;;;;;5028936;28;20626;-72
2021/05/15 07:47:15;;;;;;;0.52;0.52;;;;;;;;;;5028225;28;20117;-72
2021/05/15 07:49:41;;;;;;;0.35;0.35;;;;;;;;;;5047368;28;20147;-72
2021/05/15 07:52:07;;;;;;;0.20;0.20;;;;;;;;;;5047422;28;20021;-72
2021/05/15 07:54:33;;;;;;;0.10;0.10;;;;;;;;;;5048441;28;20044;-72
2021/05/15 07:56:59;;;;;;;1.65;0.30;;;;;;;;;;5047883;28;20044;-72
2021/05/15 07:59:25;;;;;;;0.52;0.30;;;;;;;;;;5028317;28;20086;-72
2021/05/15 08:01:52;;;;;;;0.20;0.20;;;;;;;;;;5045580;28;20067;-72
2021/05/15 08:04:18;;;;;;;2.85;0.35;;;;;;;;;;5046843;28;20028;-72
2021/05/15 08:06:44;;;;;;;0.30;0.30;;;;;;;;;;5047547;28;20102;-72
2021/05/15 08:09:11;;;;;;;0.30;0.30;;;;;;;;;;5047070;28;20040;-72
2021/05/15 08:11:37;;;;;;;0.10;0.10;;;;;;;;;;5047076;28;20025;-72
2021/05/15 08:14:05;;;;;;;0.40;0.32;;;;;;;;;;5046758;28;20032;-73
2021/05/15 08:16:32;;;;;;;0.35;0.35;;;;;;;;;;5046786;28;20016;-72
2021/05/15 08:18:58;;;;;;;0.85;0.65;;;;;;;;;;5047457;28;20395;-72
2021/05/15 08:21:24;;;;;;;0.40;0.35;;;;;;;;;;5045879;28;20403;-72
2021/05/15 08:23:50;;;;;;;0.35;0.35;;;;;;;;;;5046849;28;20484;-72
2021/05/15 08:26:16;;;;;;;0.30;0.30;;;;;;;;;;5046132;28;20438;-72
2021/05/15 08:28:47;;;;;;;1.15;0.60;;;;;;;;;;5046830;28;20028;-72
2021/05/15 08:31:13;;;;;;;0.65;0.40;;;;;;;;;;5045532;28;20641;-72
2021/05/15 08:33:39;;;;;;;0.47;0.47;;;;;;;;;;5046948;28;20460;-72
2021/05/15 08:36:06;;;;;;;0.25;0.20;;;;;;;;;;5046738;28;20036;-74
2021/05/15 08:38:32;;;;;;;0.40;0.40;;;;;;;;;;5049798;28;20104;-73
2021/05/15 08:40:59;;;;;;;0.30;0.30;;;;;;;;;;5051203;28;20090;-74
2021/05/15 08:43:27;;;;;;;0.75;0.50;;;;;;;;;;5051355;28;20039;-73
2021/05/15 08:45:55;;;;;;;0.40;0.40;;;;;;;;;;5051673;28;20099;-73
2021/05/15 08:48:22;;;;;;;0.43;0.40;;;;;;;;;;5042579;28;20049;-73
2021/05/15 08:50:48;;;;;;;0.20;0.20;;;;;;;;;;5039392;28;20028;-73
2021/05/15 08:53:15;;;;;;;0.40;0.40;;;;;;;;;;5050587;28;20025;-74
2021/05/15 08:55:41;;;;;;;0.30;0.30;;;;;;;;;;5051746;28;20025;-73
2021/05/15 08:58:07;;;;;;;0.50;0.50;;;;;;;;;;5050485;28;20021;-74
2021/05/15 09:00:37;;;;;;;0.65;0.50;;;;;;;;;;5050243;28;20503;-73
2021/05/15 09:03:08;;;;;;;0.30;0.30;;;;;;;;;;5051362;28;20025;-74
2021/05/15 09:05:36;;;;;;;0.35;0.35;;;;;;;;;;5051836;28;20021;-73
2021/05/15 09:08:03;;;;;;;1.85;0.30;;;;;;;;;;5062755;28;20111;-73
2021/05/15 09:10:30;;;;;;;0.25;0.25;;;;;;;;;;5071115;28;20028;-73
2021/05/15 09:13:13;;;;;;;2.00;0.47;;;;;;;;;;5071007;28;20510;-73
2021/05/15 09:15:44;;;;;;;0.28;0.28;;;;;;;;;;5071408;28;20398;-74
2021/05/15 09:18:10;;;;;;;1.55;0.80;;;;;;;;;;5070466;28;20031;-73
2021/05/15 09:20:38;;;;;;;0.40;0.40;;;;;;;;;;5071414;28;20039;-74
2021/05/15 09:23:11;;;;;;;0.32;0.28;;;;;;;;;;5070658;28;20032;-74
2021/05/15 09:25:37;;;;;;;0.40;0.40;;;;;;;;;;5071185;28;20165;-74
2021/05/15 09:28:03;;;;;;;0.40;0.40;;;;;;;;;;5070773;28;20028;-73
2021/05/15 09:30:31;;;;;;;0.25;0.20;;;;;;;;;;5069686;28;20036;-73
2021/05/15 09:32:57;;;;;;;0.68;0.43;;;;;;;;;;5070945;28;20044;-73
2021/05/15 09:35:26;;;;;;;0.43;0.32;;;;;;;;;;5071017;28;20032;-73
2021/05/15 09:37:53;;;;;;;0.47;0.47;;;;;;;;;;5070828;28;20067;-73
2021/05/15 09:40:21;;;;;;;0.47;0.45;;;;;;;;;;5052442;28;20659;-73
2021/05/15 09:42:51;;;;;;;0.80;0.40;;;;;;;;;;5069976;28;20485;-73
2021/05/15 09:45:28;;;;;;;0.25;0.22;;;;;;;;;;5070485;28;20082;-74
2021/05/15 09:47:59;;;;;;;0.30;0.30;;;;;;;;;;5070110;28;20123;-73
2021/05/15 09:50:27;;;;;;;0.40;0.30;;;;;;;;;;5065773;28;20111;-73
2021/05/15 09:53:08;;;;;;;0.55;0.55;;;;;;;;;;5050312;28;20023;-73
2021/05/15 09:55:35;;;;;;;0.50;0.47;;;;;;;;;;5050600;28;20032;-74
2021/05/15 09:58:03;;;;;;;0.30;0.30;;;;;;;;;;5049968;28;20454;-74
2021/05/15 10:00:38;;;;;;;0.30;0.30;;;;;;;;;;5049409;28;20052;-73
2021/05/15 10:03:04;;;;;;;0.47;0.30;;;;;;;;;;5049638;28;20036;-74
2021/05/15 10:05:30;;;;;;;0.63;0.50;;;;;;;;;;5050336;28;20029;-74
2021/05/15 10:08:05;;;;;;;0.90;0.50;;;;;;;;;;5050322;28;20115;-73
2021/05/15 10:10:31;;;;;;;0.20;0.20;;;;;;;;;;5050237;28;20108;-73
2021/05/15 10:12:58;;;;;;;0.98;0.95;;;;;;;;;;5049865;28;20402;-73
2021/05/15 10:15:24;;;;;;;0.60;0.50;;;;;;;;;;5049752;28;20120;-73
2021/05/15 10:17:50;;;;;;;0.65;0.43;;;;;;;;;;5049829;28;20060;-73
2021/05/15 10:20:16;;;;;;;0.45;0.40;;;;;;;;;;5047958;28;20025;-74
2021/05/15 10:22:44;;;;;;;0.73;0.50;;;;;;;;;;5048908;28;20063;-73
2021/05/15 10:25:14;;;;;;;1.48;0.40;;;;;;;;;;5048355;28;20017;-74
2021/05/15 10:27:41;;;;;;;0.47;0.47;;;;;;;;;;5048564;28;20055;-74
2021/05/15 10:30:14;;;;;;;1.63;0.50;;;;;;;;;;5048065;28;20029;-73
2021/05/15 10:32:40;;;;;;;;;;;;;;;;;;5049898;28;20052;-74
2021/05/15 10:35:07;;;;;;;0.55;0.43;;;;;;;;;;5049660;28;20371;-73
2021/05/15 10:37:37;;;;;;;0.47;0.47;;;;;;;;;;5048820;28;20040;-74
2021/05/15 10:40:32;;;;;;;0.45;0.45;;;;;;;;;;5050219;28;20452;-74
2021/05/15 10:42:59;;;;;;;0.47;0.40;;;;;;;;;;5027778;28;20058;-73
2021/05/15 10:45:40;;;;;;;0.50;0.50;;;;;;;;;;5048783;28;20028;-74
2021/05/15 10:48:13;;;;;;;0.82;0.63;;;;;;;;;;5048653;28;20507;-74
2021/05/15 10:51:11;;;;;;;0.55;0.45;;;;;;;;;;5049603;28;20029;-73
2021/05/15 10:53:37;;;;;;;0.43;0.43;;;;;;;;;;5005544;28;20045;-73
2021/05/15 10:56:13;;;;;;;0.50;0.50;;;;;;;;;;5049155;28;20376;-73
2021/05/15 10:58:43;;;;;;;1.15;0.57;;;;;;;;;;5049213;28;20024;-73
2021/05/15 11:01:15;;;;;;;0.25;0.22;;;;;;;;;;5047019;28;20096;-74
2021/05/15 11:03:41;;;;;;;0.47;0.35;;;;;;;;;;5048913;28;20036;-73
2021/05/15 11:06:15;;;;;;;0.32;0.32;;;;;;;;;;5049118;28;20021;-73
2021/05/15 11:08:42;;;;;;;0.55;0.55;;;;;;;;;;5049457;28;20488;-73
2021/05/15 11:11:12;;;;;;;2.10;0.47;;;;;;;;;;5048735;28;20056;-73
2021/05/15 11:13:48;;;;;;;1.20;1.02;;;;;;;;;;5048839;28;20043;-74
2021/05/15 11:16:14;;;;;;;0.20;0.20;;;;;;;;;;5048522;28;20082;-74
2021/05/15 11:18:41;;;;;;;0.50;0.50;;;;;;;;;;5049008;28;20504;-74
2021/05/15 11:21:09;;;;;;;0.68;0.40;;;;;;;;;;5048253;28;20118;-74
2021/05/15 11:23:47;;;;;;;0.38;0.38;;;;;;;;;;5048765;28;20029;-73
2021/05/15 11:26:18;;;;;;;0.40;0.30;;;;;;;;;;5048497;28;20036;-74
2021/05/15 11:28:44;;;;;;;0.75;0.70;;;;;;;;;;5048665;28;20023;-74
2021/05/15 11:31:11;;;;;;;1.98;1.05;;;;;;;;;;5047158;28;20491;-74
2021/05/15 11:33:37;;;;;;;0.93;0.93;;;;;;;;;;5048807;28;20191;-73
2021/05/15 11:36:03;;;;;;;0.28;0.28;;;;;;;;;;5049176;28;20219;-73
2021/05/15 11:38:30;;;;;;;0.43;0.43;;;;;;;;;;5047820;28;20475;-73
2021/05/15 11:41:04;;;;;;;0.70;0.47;;;;;;;;;;5049061;28;20460;-73
2021/05/15 11:43:32;;;;;;;1.80;0.47;;;;;;;;;;5048114;28;20108;-73
2021/05/15 11:45:59;;;;;;;0.35;0.35;;;;;;;;;;5048716;28;20029;-73
2021/05/15 11:48:27;;;;;;;0.30;0.30;;;;;;;;;;5039280;28;20077;-73
2021/05/15 11:51:05;;;;;;;2.03;0.40;;;;;;;;;;5036912;28;20021;-73
2021/05/15 11:53:33;;;;;;;1.17;0.75;;;;;;;;;;5047885;28;20479;-73
2021/05/15 11:55:59;;;;;;;0.73;0.30;;;;;;;;;;5048456;28;20021;-74
2021/05/15 11:58:25;;;;;;;0.77;0.52;;;;;;;;;;5047557;28;20264;-73
2021/05/15 12:00:52;;;;;;;0.32;0.32;;;;;;;;;;5047259;28;20120;-73
2021/05/15 12:03:21;;;;;;;0.60;0.60;;;;;;;;;;5047299;28;20032;-73
2021/05/15 12:05:47;;;;;;;0.70;0.70;;;;;;;;;;5048156;28;20479;-73
2021/05/15 12:08:14;;;;;;;0.40;0.40;;;;;;;;;;5047160;28;20029;-73
2021/05/15 12:10:41;;;;;;;0.40;0.40;;;;;;;;;;5048217;28;20032;-73
2021/05/15 12:13:07;;;;;;;0.20;0.20;;;;;;;;;;5047201;28;20441;-73
2021/05/15 12:15:33;;;;;;;0.80;0.77;;;;;;;;;;5048214;28;20029;-73
2021/05/15 12:18:00;;;;;;;0.52;0.52;;;;;;;;;;5047944;28;20063;-73
2021/05/15 12:20:38;;;;;;;3.05;0.93;;;;;;;;;;5047425;28;20037;-73
2021/05/15 12:23:06;;;;;;;0.40;0.40;;;;;;;;;;5047374;28;20052;-73
2021/05/15 12:25:32;;;;;;;1.02;0.70;;;;;;;;;;5048022;28;20025;-73
2021/05/15 12:27:58;;;;;;;0.47;0.40;;;;;;;;;;5047530;28;20108;-73
2021/05/15 12:30:28;;;;;;;0.20;0.20;;;;;;;;;;5046186;28;20653;-73
2021/05/15 12:33:01;;;;;;;0.30;0.30;;;;;;;;;;5047699;28;20029;-73
2021/05/15 12:35:27;;;;;;;0.32;0.30;;;;;;;;;;5047470;28;20108;-73
2021/05/15 12:37:56;;;;;;;0.40;0.40;;;;;;;;;;5047868;28;20083;-73
2021/05/15 12:40:22;;;;;;;0.50;0.50;;;;;;;;;;5047252;28;20317;-73
2021/05/15 12:42:48;;;;;;;0.60;0.45;;;;;;;;;;5046976;28;20561;-73
2021/05/15 12:45:17;;;;;;;0.57;0.50;;;;;;;;;;5046848;28;20025;-73
2021/05/15 12:47:44;;;;;;;0.47;0.47;;;;;;;;;;5049941;28;20025;-73
2021/05/15 12:50:16;;;;;;;0.80;0.80;;;;;;;;;;5065003;28;20021;-73
2021/05/15 12:52:42;;;;;;;0.82;0.82;;;;;;;;;;5047697;28;20479;-73
2021/05/15 12:55:09;;;;;;;0.50;0.43;;;;;;;;;;5046872;28;20068;-73
2021/05/15 12:57:35;;;;;;;0.25;0.22;;;;;;;;;;5047304;28;20021;-73
2021/05/15 13:00:01;;;;;;;0.50;0.50;;;;;;;;;;5046823;28;20025;-72
2021/05/15 13:02:28;;;;;;;0.60;0.60;;;;;;;;;;5046704;28;20036;-73
2021/05/15 13:04:56;;;;;;;0.50;0.50;;;;;;;;;;5048057;28;20452;-73
2021/05/15 13:07:33;;;;;;;0.40;0.40;;;;;;;;;;5046176;28;20503;-73
2021/05/15 13:09:59;;;;;;;0.98;0.40;;;;;;;;;;5048048;28;20503;-73
2021/05/15 13:12:25;;;;;;;0.40;0.40;;;;;;;;;;5046591;28;20028;-73
2021/05/15 13:14:51;;;;;;;0.93;0.77;;;;;;;;;;5047615;28;20037;-72
2021/05/15 13:17:17;;;;;;;0.57;0.35;;;;;;;;;;5046367;28;20025;-73
2021/05/15 13:19:44;;;;;;;0.68;0.40;;;;;;;;;;5047425;28;20074;-73
2021/05/15 13:22:10;;;;;;;2.47;0.95;;;;;;;;;;5046843;28;20021;-73
2021/05/15 13:24:38;;;;;;;0.40;0.40;;;;;;;;;;5050420;28;20256;-72
2021/05/15 13:27:04;;;;;;;0.63;0.43;;;;;;;;;;5033002;28;20445;-73
2021/05/15 13:29:31;;;;;;;2.40;0.90;;;;;;;;;;5050043;28;20395;-73
2021/05/15 13:31:58;;;;;;;0.60;0.60;;;;;;;;;;5050852;28;20035;-73
2021/05/15 13:34:24;;;;;;;0.50;0.50;;;;;;;;;;5050602;28;20033;-72
2021/05/15 13:36:50;;;;;;;0.55;0.50;;;;;;;;;;5050555;28;20039;-73
2021/05/15 13:39:16;;;;;;;0.40;0.40;;;;;;;;;;5050271;28;20024;-73
2021/05/15 13:41:45;;;;;;;0.47;0.43;;;;;;;;;;5051056;28;20126;-72
2021/05/15 13:44:11;;;;;;;0.65;0.65;;;;;;;;;;5050739;28;20037;-73
2021/05/15 13:46:38;;;;;;;0.73;0.52;;;;;;;;;;5051019;28;20032;-73
2021/05/15 13:49:04;;;;;;;0.60;0.60;;;;;;;;;;5049936;28;20526;-73
2021/05/15 13:51:31;;;;;;;0.65;0.50;;;;;;;;;;5063855;28;20020;-72
2021/05/15 13:53:57;;;;;;;0.50;0.50;;;;;;;;;;5071016;28;20116;-72
2021/05/15 13:56:25;;;;;;;0.57;0.47;;;;;;;;;;5069902;28;20516;-72
2021/05/15 13:58:51;;;;;;;0.50;0.43;;;;;;;;;;5069568;28;20021;-73
2021/05/15 14:01:18;;;;;;;0.60;0.60;;;;;;;;;;5069125;28;20040;-73
2021/05/15 14:03:44;;;;;;;0.47;0.47;;;;;;;;;;5070353;28;20490;-73
2021/05/15 14:06:10;;;;;;;0.32;0.32;;;;;;;;;;5070160;28;20028;-73
2021/05/15 14:08:36;;;;;;;0.40;0.40;;;;;;;;;;5069986;28;20094;-73
2021/05/15 14:11:03;;;;;;;0.70;0.70;;;;;;;;;;5070076;28;20025;-73
2021/05/15 14:13:30;;;;;;;0.55;0.45;;;;;;;;;;5069769;28;20831;-73
2021/05/15 14:15:56;;;;;;;0.40;0.40;;;;;;;;;;5070470;28;20021;-73
2021/05/15 14:18:22;;;;;;;0.55;0.55;;;;;;;;;;5068828;28;20028;-72
2021/05/15 14:20:48;;;;;;;0.43;0.32;;;;;;;;;;5070524;28;20020;-73
2021/05/15 14:23:14;;;;;;;0.82;0.82;;;;;;;;;;5069071;28;20048;-73
2021/05/15 14:25:41;;;;;;;0.50;0.50;;;;;;;;;;5070781;28;20032;-72
2021/05/15 14:28:09;;;;;;;0.80;0.52;;;;;;;;;;5068522;28;20020;-73
2021/05/15 14:30:35;;;;;;;0.55;0.55;;;;;;;;;;5069053;28;20547;-72
2021/05/15 14:33:03;;;;;;;0.50;0.50;;;;;;;;;;5069533;28;20028;-73
2021/05/15 14:35:29;;;;;;;0.70;0.60;;;;;;;;;;5069934;28;20404;-72
2021/05/15 14:37:55;;;;;;;0.70;0.45;;;;;;;;;;5051058;28;20025;-72
2021/05/15 14:40:25;;;;;;;0.60;0.50;;;;;;;;;;5069425;28;20059;-73
2021/05/15 14:42:51;;;;;;;0.38;0.38;;;;;;;;;;5069398;28;20086;-72